createdAt,value
2023-03-29T00:01:35.818Z,3.90
2023-03-29T00:06:38.561Z,4.95
2023-03-29T00:11:40.759Z,3.95
2023-03-29T00:16:44.837Z,4.38
2023-03-29T00:21:46.693Z,3.75
2023-03-29T00:26:48.623Z,3.88
2023-03-29T00:31:54.010Z,3.50
2023-03-29T00:36:58.060Z,3.60
2023-03-29T00:41:59.782Z,4.50
2023-03-29T00:47:01.488Z,4.05
2023-03-29T00:52:03.618Z,3.78
2023-03-29T00:57:06.936Z,3.83
2023-03-29T01:02:09.458Z,3.72
2023-03-29T01:07:14.137Z,4.43
2023-03-29T01:12:20.868Z,4.03
2023-03-29T01:17:25.576Z,3.65
2023-03-29T01:22:51.898Z,3.35
2023-03-29T01:28:03.023Z,3.75
2023-03-29T01:33:27.982Z,3.33
2023-03-29T01:38:39.393Z,3.60
2023-03-29T01:43:56.335Z,4.47
2023-03-29T01:49:11.261Z,3.67
2023-03-29T01:54:19.400Z,3.10
2023-03-29T01:59:28.375Z,3.42
2023-03-29T02:04:37.124Z,3.20
2023-03-29T02:09:40.131Z,3.03
2023-03-29T02:14:41.911Z,3.10
2023-03-29T02:19:46.128Z,2.95
2023-03-29T02:24:51.010Z,2.65
2023-03-29T02:29:54.778Z,2.43
2023-03-29T02:35:04.662Z,2.67
2023-03-29T02:40:08.033Z,2.88
2023-03-29T02:45:15.589Z,2.67
2023-03-29T02:50:18.816Z,2.53
2023-03-29T02:55:24.934Z,2.95
2023-03-29T03:00:26.664Z,2.05
2023-03-29T03:05:31.059Z,2.65
2023-03-29T03:10:34.779Z,2.22
2023-03-29T03:15:37.279Z,3.10
2023-03-29T03:20:40.129Z,2.60
2023-03-29T03:25:41.810Z,2.55
2023-03-29T03:30:43.826Z,2.53
2023-03-29T03:36:06.857Z,2.50
2023-03-29T03:41:10.863Z,3.15
2023-03-29T03:46:13.669Z,2.88
2023-03-29T03:51:15.671Z,2.53
2023-03-29T03:56:17.781Z,2.85
2023-03-29T04:01:43.353Z,3.10
2023-03-29T04:06:51.750Z,2.78
2023-03-29T04:12:19.570Z,2.70
2023-03-29T04:17:21.934Z,3.20
2023-03-29T04:22:34.672Z,2.65
2023-03-29T04:27:36.990Z,2.67
2023-03-29T04:32:45.362Z,3.10
2023-03-29T04:37:48.254Z,3.17
2023-03-29T04:42:51.746Z,2.75
2023-03-29T04:47:59.596Z,3.97
2023-03-29T04:58:04.790Z,4.43
2023-03-29T05:03:13.537Z,4.93
2023-03-29T05:08:27.959Z,4.78
2023-03-29T05:13:42.990Z,3.83
2023-03-29T05:18:45.130Z,4.68
2023-03-29T05:23:47.084Z,4.82
2023-03-29T05:28:52.344Z,4.88
2023-03-29T05:33:54.407Z,5.25
2023-03-29T05:38:57.132Z,5.15
2023-03-29T05:43:59.919Z,4.55
2023-03-29T05:49:03.170Z,5.25
2023-03-29T05:54:24.208Z,5.40
2023-03-29T05:59:28.412Z,5.30
2023-03-29T06:04:31.915Z,4.22
2023-03-29T06:09:54.164Z,5.28
2023-03-29T06:14:58.234Z,6.20
2023-03-29T06:20:11.850Z,5.13
2023-03-29T06:25:17.696Z,4.68
2023-03-29T06:30:21.813Z,4.90
2023-03-29T06:35:27.728Z,5.30
2023-03-29T06:40:38.224Z,4.75
2023-03-29T06:45:40.700Z,4.85
2023-03-29T06:50:54.449Z,4.20
2023-03-29T07:01:17.834Z,4.40
2023-03-29T07:06:34.324Z,4.03
2023-03-29T07:11:36.896Z,4.43
2023-03-29T07:17:05.826Z,5.40
2023-03-29T07:22:10.948Z,5.18
2023-03-29T07:27:22.338Z,4.00
2023-03-29T07:32:24.804Z,4.40
2023-03-29T07:37:46.467Z,3.70
2023-03-29T07:42:53.226Z,3.80
2023-03-29T07:47:58.346Z,3.72
2023-03-29T07:53:03.346Z,4.47
2023-03-29T07:58:06.459Z,3.60
2023-03-29T08:03:13.225Z,3.70
2023-03-29T08:08:16.163Z,2.67
2023-03-29T08:13:25.916Z,3.75
2023-03-29T08:19:02.883Z,3.10
2023-03-29T08:24:22.141Z,3.72
2023-03-29T08:29:29.313Z,4.10
2023-03-29T08:34:31.856Z,4.20
2023-03-29T08:39:52.277Z,3.50
2023-03-29T08:45:39.847Z,3.47
2023-03-29T08:50:52.783Z,4.22
2023-03-29T08:55:58.743Z,3.78
2023-03-29T09:01:20.833Z,3.90
2023-03-29T09:06:29.037Z,2.97
2023-03-29T09:12:00.143Z,3.50
2023-03-29T09:17:33.194Z,3.58
2023-03-29T09:23:06.932Z,4.32
2023-03-29T09:28:27.077Z,4.82
2023-03-29T09:33:56.955Z,3.90
2023-03-29T09:39:04.829Z,3.88
2023-03-29T09:44:27.725Z,3.37
2023-03-29T09:54:42.382Z,3.35
2023-03-29T10:00:07.333Z,3.92
2023-03-29T10:05:17.994Z,3.88
2023-03-29T10:10:24.250Z,3.13
2023-03-29T10:15:30.405Z,3.85
2023-03-29T10:20:36.301Z,3.25
2023-03-29T10:25:42.985Z,3.70
2023-03-29T10:30:52.475Z,3.40
2023-03-29T10:35:57.253Z,3.38
2023-03-29T10:41:12.799Z,2.88
2023-03-29T10:46:41.563Z,3.40
2023-03-29T10:51:49.193Z,2.88
2023-03-29T10:57:03.420Z,2.15
2023-03-29T11:02:14.309Z,2.10
2023-03-29T11:07:28.176Z,2.40
2023-03-29T11:12:44.997Z,1.85
2023-03-29T11:18:22.239Z,2.22
2023-03-29T11:23:43.177Z,2.03
2023-03-29T11:29:07.201Z,2.63
2023-03-29T11:34:30.674Z,2.42
2023-03-29T11:39:44.935Z,1.95
2023-03-29T11:44:52.821Z,1.60
2023-03-29T11:49:58.878Z,2.22
2023-03-29T11:55:13.496Z,1.92
2023-03-29T12:00:19.677Z,1.98
2023-03-29T12:05:32.381Z,2.10
2023-03-29T12:10:43.194Z,1.80
2023-03-29T12:16:16.508Z,2.05
2023-03-29T12:21:23.404Z,1.98
2023-03-29T12:26:34.855Z,2.08
2023-03-29T12:32:13.843Z,2.42
2023-03-29T12:37:32.553Z,4.38
2023-03-29T12:42:57.723Z,5.97
2023-03-29T12:48:22.324Z,6.65
2023-03-29T12:53:45.908Z,6.27
2023-03-29T12:58:53.578Z,6.00
2023-03-29T13:04:01.494Z,8.85
2023-03-29T13:09:21.503Z,9.68
2023-03-29T13:14:30.035Z,10.00
2023-03-29T13:19:44.051Z,9.48
2023-03-29T13:25:14.472Z,9.90
2023-03-29T13:30:34.480Z,10.05
2023-03-29T13:35:42.506Z,9.88
2023-03-29T13:40:46.954Z,10.57
2023-03-29T13:45:57.572Z,10.43
2023-03-29T13:51:08.383Z,9.85
2023-03-29T13:56:17.098Z,10.93
2023-03-29T14:01:31.309Z,17.67
2023-03-29T14:06:36.612Z,11.77
2023-03-29T14:11:38.460Z,13.85
2023-03-29T14:16:41.779Z,12.95
2023-03-29T14:21:45.127Z,11.40
2023-03-29T14:26:47.918Z,10.80
2023-03-29T14:31:50.220Z,8.45
2023-03-29T14:36:54.235Z,8.95
2023-03-29T14:41:59.781Z,6.63
2023-03-29T14:47:03.447Z,6.78
2023-03-29T14:52:06.017Z,5.00
2023-03-29T14:57:20.787Z,5.72
2023-03-29T15:02:29.428Z,7.55
2023-03-29T15:07:33.604Z,8.80
2023-03-29T15:12:37.984Z,8.00
2023-03-29T15:17:50.371Z,9.50
2023-03-29T15:23:00.950Z,9.15
2023-03-29T15:28:02.763Z,17.13
2023-03-29T15:33:16.475Z,7.88
2023-03-29T15:38:23.377Z,7.07
2023-03-29T15:43:30.989Z,6.72
2023-03-29T15:48:33.924Z,6.07
2023-03-29T15:53:36.172Z,6.93
2023-03-29T15:58:38.580Z,8.27
2023-03-29T16:03:41.656Z,7.18
2023-03-29T16:08:53.995Z,6.43
2023-03-29T16:13:57.845Z,5.80
2023-03-29T16:18:59.696Z,5.35
2023-03-29T16:24:01.683Z,4.30
2023-03-29T16:29:03.341Z,4.75
2023-03-29T16:34:05.733Z,3.80
2023-03-29T16:39:07.431Z,4.47
2023-03-29T16:44:15.800Z,4.55
2023-03-29T16:49:18.225Z,4.88
2023-03-29T16:54:19.979Z,4.47
2023-03-29T16:59:21.864Z,4.68
2023-03-29T17:04:23.639Z,4.50
2023-03-29T17:09:26.650Z,3.88
2023-03-29T17:14:30.088Z,3.67
2023-03-29T17:19:31.798Z,4.65
2023-03-29T17:24:33.403Z,5.90
2023-03-29T17:29:35.263Z,7.57
2023-03-29T17:34:37.303Z,7.10
2023-03-29T17:39:38.946Z,8.43
2023-03-29T17:44:40.542Z,8.38
2023-03-29T17:49:42.240Z,8.00
2023-03-29T17:54:43.868Z,7.97
2023-03-29T17:59:45.495Z,7.50
2023-03-29T18:04:47.309Z,7.60
2023-03-29T18:09:49.981Z,9.35
2023-03-29T18:14:52.153Z,8.45
2023-03-29T18:19:53.971Z,10.25
2023-03-29T18:24:56.414Z,10.90
2023-03-29T18:29:58.794Z,11.70
2023-03-29T18:35:02.309Z,12.13
2023-03-29T18:40:07.971Z,11.80
2023-03-29T18:45:10.687Z,11.70
2023-03-29T18:50:13.204Z,11.48
2023-03-29T18:55:15.374Z,12.38
2023-03-29T19:00:17.454Z,11.90
2023-03-29T19:05:19.131Z,12.13
2023-03-29T19:10:21.182Z,12.75
2023-03-29T19:15:23.040Z,12.10
2023-03-29T19:20:25.534Z,11.65
2023-03-29T19:25:27.763Z,12.20
2023-03-29T19:30:31.119Z,11.32
2023-03-29T19:35:32.866Z,11.82
2023-03-29T19:40:34.714Z,10.88
2023-03-29T19:45:36.365Z,11.50
2023-03-29T19:50:42.743Z,11.60
2023-03-29T19:55:45.278Z,10.87
2023-03-29T20:00:47.357Z,11.38
2023-03-29T20:05:49.088Z,10.55
2023-03-29T20:11:02.340Z,11.10
2023-03-29T20:16:15.158Z,10.07
2023-03-29T20:21:18.367Z,11.00
2023-03-29T20:26:20.048Z,10.88
2023-03-29T20:31:22.088Z,10.07
2023-03-29T20:36:24.022Z,9.68
2023-03-29T20:41:26.748Z,9.75
2023-03-29T20:46:33.819Z,9.48
2023-03-29T20:51:36.840Z,9.70
2023-03-29T20:56:42.381Z,8.52
2023-03-29T21:01:44.371Z,9.43
2023-03-29T21:06:49.579Z,8.88
2023-03-29T21:12:07.217Z,9.20
2023-03-29T21:17:09.346Z,9.40
2023-03-29T21:22:13.803Z,8.82
2023-03-29T21:27:15.536Z,11.18
2023-03-29T21:32:17.173Z,10.13
2023-03-29T21:37:18.798Z,10.13
2023-03-29T21:42:20.752Z,9.90
2023-03-29T21:47:22.435Z,9.82
2023-03-29T21:52:24.157Z,9.40
2023-03-29T21:57:25.931Z,8.80
2023-03-29T22:02:27.791Z,9.30
2023-03-29T22:07:29.675Z,9.57
2023-03-29T22:12:34.488Z,8.40
2023-03-29T22:17:36.348Z,9.60
2023-03-29T22:22:50.683Z,9.57
2023-03-29T22:27:52.381Z,9.25
2023-03-29T22:32:54.147Z,8.75
2023-03-29T22:37:56.080Z,9.05
2023-03-29T22:42:57.731Z,9.77
2023-03-29T22:47:59.874Z,8.77
2023-03-29T22:53:01.694Z,8.63
2023-03-29T22:58:03.647Z,9.27
2023-03-29T23:03:06.657Z,8.35
2023-03-29T23:08:08.390Z,7.90
2023-03-29T23:13:10.600Z,8.52
2023-03-29T23:18:15.458Z,8.48
2023-03-29T23:23:19.200Z,8.43
2023-03-29T23:28:24.522Z,8.10
2023-03-29T23:33:27.066Z,7.93
2023-03-29T23:38:29.099Z,7.20
2023-03-29T23:43:33.963Z,7.22
2023-03-29T23:48:36.029Z,7.10
2023-03-29T23:53:38.236Z,7.38
2023-03-29T23:58:39.990Z,6.65
